createdAt,value
2023-04-19T00:00:09.256Z,7.40
2023-04-19T00:03:14.488Z,6.60
2023-04-19T00:06:17.522Z,7.00
2023-04-19T00:09:20.140Z,6.40
2023-04-19T00:12:22.690Z,7.20
2023-04-19T00:15:25.535Z,6.83
2023-04-19T00:18:29.504Z,7.50
2023-04-19T00:21:32.332Z,7.23
2023-04-19T00:24:35.350Z,7.17
2023-04-19T00:27:37.951Z,6.67
2023-04-19T00:30:40.536Z,6.77
2023-04-19T00:33:44.477Z,6.67
2023-04-19T00:36:47.094Z,6.90
2023-04-19T00:39:49.734Z,6.60
2023-04-19T00:42:52.391Z,6.87
2023-04-19T00:45:55.280Z,6.60
2023-04-19T00:48:59.392Z,6.23
2023-04-19T00:52:02.037Z,6.60
2023-04-19T00:55:06.218Z,6.97
2023-04-19T00:58:09.718Z,6.83
2023-04-19T01:01:12.474Z,6.90
2023-04-19T01:04:17.481Z,7.37
2023-04-19T01:07:20.705Z,6.43
2023-04-19T01:10:23.425Z,7.70
2023-04-19T01:13:27.845Z,6.67
2023-04-19T01:16:30.551Z,6.57
2023-04-19T01:19:36.333Z,6.93
2023-04-19T01:22:40.343Z,7.20
2023-04-19T01:25:43.037Z,6.53
2023-04-19T01:28:45.757Z,6.77
2023-04-19T01:31:51.534Z,5.90
2023-04-19T01:34:54.246Z,6.40
2023-04-19T01:37:58.246Z,6.90
2023-04-19T01:41:00.812Z,7.13
2023-04-19T01:44:03.399Z,6.87
2023-04-19T01:47:06.357Z,6.50
2023-04-19T01:50:09.993Z,6.83
2023-04-19T01:53:14.093Z,6.47
2023-04-19T01:56:16.642Z,7.17
2023-04-19T01:59:19.341Z,6.67
2023-04-19T02:02:22.144Z,7.10
2023-04-19T02:05:24.942Z,7.38
2023-04-19T02:08:29.159Z,7.23
2023-04-19T02:11:31.884Z,6.77
2023-04-19T02:14:34.538Z,7.40
2023-04-19T02:17:37.169Z,7.77
2023-04-19T02:20:39.902Z,7.20
2023-04-19T02:23:43.901Z,7.40
2023-04-19T02:26:46.537Z,6.57
2023-04-19T02:29:49.131Z,6.90
2023-04-19T02:32:51.795Z,7.23
2023-04-19T02:35:54.434Z,7.53
2023-04-19T02:38:59.268Z,8.20
2023-04-19T02:42:02.261Z,7.63
2023-04-19T02:45:05.716Z,7.50
2023-04-19T02:48:08.367Z,7.03
2023-04-19T02:51:16.420Z,7.13
2023-04-19T02:54:20.451Z,7.77
2023-04-19T02:57:23.339Z,6.73
2023-04-19T03:00:25.954Z,7.07
2023-04-19T03:03:28.663Z,7.63
2023-04-19T03:06:31.970Z,7.93
2023-04-19T03:09:35.967Z,8.33
2023-04-19T03:12:38.556Z,7.67
2023-04-19T03:15:41.166Z,7.70
2023-04-19T03:18:43.824Z,9.17
2023-04-19T03:21:46.906Z,7.63
2023-04-19T03:24:50.944Z,7.43
2023-04-19T03:27:53.529Z,7.43
2023-04-19T03:30:56.161Z,7.73
2023-04-19T03:33:58.833Z,7.53
2023-04-19T03:37:01.507Z,8.37
2023-04-19T03:40:06.024Z,7.90
2023-04-19T03:43:08.602Z,8.57
2023-04-19T03:46:11.297Z,7.97
2023-04-19T03:49:13.914Z,8.20
2023-04-19T03:52:16.564Z,7.43
2023-04-19T03:55:20.797Z,8.67
2023-04-19T03:58:23.804Z,8.47
2023-04-19T04:01:27.176Z,8.10
2023-04-19T04:04:29.973Z,7.97
2023-04-19T04:07:32.715Z,7.77
2023-04-19T04:10:36.674Z,7.77
2023-04-19T04:13:39.278Z,8.10
2023-04-19T04:16:42.340Z,7.90
2023-04-19T04:19:45.123Z,7.90
2023-04-19T04:22:47.725Z,8.10
2023-04-19T04:26:00.628Z,7.80
2023-04-19T04:29:03.669Z,8.07
2023-04-19T04:32:10.525Z,8.60
2023-04-19T04:35:13.383Z,7.83
2023-04-19T04:38:24.178Z,7.47
2023-04-19T04:41:31.593Z,7.83
2023-04-19T04:44:34.828Z,7.47
2023-04-19T04:47:37.655Z,8.23
2023-04-19T04:50:40.568Z,7.60
2023-04-19T04:53:43.263Z,7.37
2023-04-19T04:56:47.259Z,7.57
2023-04-19T04:59:49.918Z,7.40
2023-04-19T05:02:53.116Z,7.97
2023-04-19T05:05:56.313Z,8.23
2023-04-19T05:08:58.966Z,7.97
2023-04-19T05:12:02.919Z,7.90
2023-04-19T05:15:06.413Z,7.07
2023-04-19T05:18:09.050Z,8.17
2023-04-19T05:21:11.667Z,8.47
2023-04-19T05:24:14.596Z,8.00
2023-04-19T05:27:18.898Z,8.20
2023-04-19T05:30:21.677Z,8.27
2023-04-19T05:33:24.339Z,8.50
2023-04-19T05:36:28.153Z,7.80
2023-04-19T05:39:30.763Z,8.87
2023-04-19T05:42:34.937Z,7.27
2023-04-19T05:45:37.577Z,7.90
2023-04-19T05:48:40.140Z,8.13
2023-04-19T05:51:42.738Z,8.13
2023-04-19T05:54:45.349Z,7.80
2023-04-19T05:57:49.333Z,7.60
2023-04-19T06:00:52.580Z,7.87
2023-04-19T06:03:55.850Z,8.23
2023-04-19T06:06:58.748Z,7.27
2023-04-19T06:10:01.665Z,7.37
2023-04-19T06:13:06.073Z,7.57
2023-04-19T06:16:09.620Z,7.35
2023-04-19T06:19:12.221Z,6.63
2023-04-19T06:22:15.155Z,7.30
2023-04-19T06:25:17.809Z,7.60
2023-04-19T06:28:21.922Z,7.17
2023-04-19T06:31:24.859Z,6.77
2023-04-19T06:34:27.517Z,6.83
2023-04-19T06:37:30.168Z,6.97
2023-04-19T06:40:32.885Z,6.83
2023-04-19T06:43:36.909Z,7.50
2023-04-19T06:46:39.902Z,7.23
2023-04-19T06:49:42.498Z,6.47
2023-04-19T06:52:45.151Z,7.75
2023-04-19T06:55:48.057Z,7.90
2023-04-19T06:58:52.152Z,7.20
2023-04-19T07:01:56.848Z,7.55
2023-04-19T07:04:59.754Z,7.37
2023-04-19T07:08:02.479Z,6.38
2023-04-19T07:11:06.714Z,6.88
2023-04-19T07:14:11.666Z,6.97
2023-04-19T07:17:14.824Z,6.95
2023-04-19T07:20:17.463Z,7.38
2023-04-19T07:23:20.203Z,6.70
2023-04-19T07:26:22.895Z,7.37
2023-04-19T07:29:26.976Z,6.88
2023-04-19T07:32:29.629Z,7.13
2023-04-19T07:35:32.334Z,6.82
2023-04-19T07:38:34.947Z,7.38
2023-04-19T07:41:37.537Z,6.78
2023-04-19T07:44:41.458Z,6.88
2023-04-19T07:47:44.069Z,6.65
2023-04-19T07:50:46.778Z,6.78
2023-04-19T07:53:49.356Z,6.22
2023-04-19T07:56:51.960Z,7.25
2023-04-19T07:59:59.147Z,6.32
2023-04-19T08:03:01.900Z,5.80
2023-04-19T08:06:07.165Z,6.25
2023-04-19T08:09:09.945Z,6.10
2023-04-19T08:12:17.168Z,6.40
2023-04-19T08:16:03.442Z,5.95
2023-04-19T08:18:53.072Z,5.75
2023-04-19T08:21:55.713Z,5.20
2023-04-19T08:24:58.344Z,5.93
2023-04-19T08:28:01.000Z,5.53
2023-04-19T08:31:08.230Z,5.57
2023-04-19T08:34:11.084Z,5.63
2023-04-19T08:37:13.690Z,5.70
2023-04-19T08:40:16.960Z,5.25
2023-04-19T08:43:20.708Z,5.30
2023-04-19T08:46:24.990Z,6.63
2023-04-19T08:49:28.810Z,6.00
2023-04-19T08:52:37.229Z,6.03
2023-04-19T08:55:54.874Z,6.32
2023-04-19T08:59:17.993Z,5.45
2023-04-19T09:02:22.782Z,5.72
2023-04-19T09:05:25.795Z,6.07
2023-04-19T09:08:30.339Z,6.85
2023-04-19T09:11:38.738Z,5.75
2023-04-19T09:14:59.847Z,5.85
2023-04-19T09:18:07.228Z,6.43
2023-04-19T09:21:09.888Z,5.75
2023-04-19T09:24:12.685Z,6.35
2023-04-19T09:27:20.100Z,6.10
2023-04-19T09:30:31.423Z,6.30
2023-04-19T09:33:39.859Z,5.88
2023-04-19T09:36:43.271Z,5.88
2023-04-19T09:39:45.965Z,6.32
2023-04-19T09:45:54.121Z,6.57
2023-04-19T09:49:25.062Z,5.68
2023-04-19T09:52:39.941Z,5.60
2023-04-19T09:55:57.083Z,5.28
2023-04-19T09:59:20.211Z,5.68
2023-04-19T10:02:25.497Z,5.85
2023-04-19T10:05:30.280Z,5.03
2023-04-19T10:08:33.685Z,5.00
2023-04-19T10:11:38.919Z,5.18
2023-04-19T10:14:41.917Z,5.35
2023-04-19T10:17:44.915Z,5.10
2023-04-19T10:20:56.401Z,6.22
2023-04-19T10:24:00.408Z,5.57
2023-04-19T10:27:12.242Z,5.13
2023-04-19T10:30:20.683Z,5.03
2023-04-19T10:33:28.175Z,5.55
2023-04-19T10:36:33.780Z,5.57
2023-04-19T10:39:44.155Z,5.25
2023-04-19T10:43:18.153Z,4.32
2023-04-19T10:46:39.830Z,5.82
2023-04-19T10:49:46.846Z,5.65
2023-04-19T10:52:50.875Z,6.28
2023-04-19T10:55:53.530Z,5.95
2023-04-19T10:59:21.887Z,5.15
2023-04-19T11:02:29.156Z,5.85
2023-04-19T11:05:52.029Z,5.45
2023-04-19T11:08:56.179Z,5.03
2023-04-19T11:12:00.789Z,4.78
2023-04-19T11:15:03.405Z,5.03
2023-04-19T11:18:12.417Z,5.65
2023-04-19T11:21:18.784Z,5.22
2023-04-19T11:24:25.177Z,4.53
2023-04-19T11:27:28.783Z,5.45
2023-04-19T11:30:33.630Z,5.95
2023-04-19T11:33:37.034Z,5.18
2023-04-19T11:36:49.014Z,6.40
2023-04-19T11:39:53.230Z,6.15
2023-04-19T11:42:57.837Z,6.75
2023-04-19T11:46:07.041Z,6.57
2023-04-19T11:49:09.975Z,6.95
2023-04-19T11:52:13.097Z,6.18
2023-04-19T11:55:21.360Z,6.95
2023-04-19T11:58:29.907Z,7.28
2023-04-19T12:01:32.844Z,7.20
2023-04-19T12:04:36.177Z,7.20
2023-04-19T12:07:39.372Z,7.13
2023-04-19T12:10:57.097Z,7.15
2023-04-19T12:14:09.838Z,7.90
2023-04-19T12:17:14.014Z,7.70
2023-04-19T12:20:30.211Z,7.70
2023-04-19T12:23:33.161Z,9.18
2023-04-19T12:26:37.827Z,8.32
2023-04-19T12:29:40.755Z,7.05
2023-04-19T12:32:43.715Z,8.40
2023-04-19T12:35:46.529Z,8.93
2023-04-19T12:38:49.194Z,8.98
2023-04-19T12:41:53.376Z,8.13
2023-04-19T12:44:56.106Z,8.35
2023-04-19T12:47:58.914Z,8.07
2023-04-19T12:51:01.813Z,8.10
2023-04-19T12:54:07.428Z,8.33
2023-04-19T12:57:11.524Z,7.70
2023-04-19T13:00:14.950Z,7.68
2023-04-19T13:03:17.783Z,8.70
2023-04-19T13:06:20.883Z,7.70
2023-04-19T13:09:23.664Z,7.40
2023-04-19T13:12:28.026Z,8.52
2023-04-19T13:15:30.882Z,8.35
2023-04-19T13:18:33.695Z,7.40
2023-04-19T13:21:36.973Z,7.50
2023-04-19T13:24:39.853Z,6.97
2023-04-19T13:27:43.964Z,7.03
2023-04-19T13:30:46.625Z,7.60
2023-04-19T13:33:49.367Z,6.70
2023-04-19T13:36:52.143Z,7.22
2023-04-19T13:40:03.895Z,6.43
2023-04-19T13:43:15.139Z,6.73
2023-04-19T13:46:18.053Z,6.27
2023-04-19T13:49:20.802Z,5.97
2023-04-19T13:52:23.687Z,6.82
2023-04-19T13:55:28.112Z,6.73
2023-04-19T13:58:32.174Z,5.83
2023-04-19T14:01:35.000Z,6.82
2023-04-19T14:04:37.793Z,5.93
2023-04-19T14:07:41.520Z,6.67
2023-04-19T14:10:44.180Z,5.97
2023-04-19T14:13:49.324Z,5.80
2023-04-19T14:16:52.224Z,5.05
2023-04-19T14:19:55.183Z,5.68
2023-04-19T14:22:59.108Z,5.00
2023-04-19T14:26:01.889Z,5.35
2023-04-19T14:29:06.672Z,5.28
2023-04-19T14:32:24.065Z,5.82
2023-04-19T14:35:27.529Z,5.47
2023-04-19T14:38:30.308Z,5.00
2023-04-19T14:41:33.121Z,4.55
2023-04-19T14:44:37.615Z,5.35
2023-04-19T14:47:40.482Z,4.90
2023-04-19T14:50:43.260Z,4.70
2023-04-19T14:53:46.260Z,5.00
2023-04-19T14:56:49.015Z,5.60
2023-04-19T14:59:57.875Z,5.28
2023-04-19T15:03:01.294Z,5.47
2023-04-19T15:06:05.090Z,5.40
2023-04-19T15:09:07.964Z,5.32
2023-04-19T15:12:10.781Z,5.30
2023-04-19T15:15:14.885Z,4.78
2023-04-19T15:18:17.688Z,5.85
2023-04-19T15:21:23.014Z,5.65
2023-04-19T15:24:27.339Z,5.25
2023-04-19T15:27:30.221Z,5.15
2023-04-19T15:30:34.392Z,5.60
2023-04-19T15:33:38.003Z,5.43
2023-04-19T15:36:41.321Z,5.28
2023-04-19T15:39:44.542Z,5.40
2023-04-19T15:42:47.320Z,5.80
2023-04-19T15:45:52.085Z,5.03
2023-04-19T15:48:54.747Z,5.88
2023-04-19T15:51:57.464Z,4.85
2023-04-19T15:55:00.253Z,4.50
2023-04-19T15:58:04.544Z,5.07
2023-04-19T16:01:12.575Z,5.13
2023-04-19T16:04:15.515Z,5.38
2023-04-19T16:07:18.297Z,5.30
2023-04-19T16:10:21.271Z,5.03
2023-04-19T16:13:24.171Z,5.75
2023-04-19T16:16:31.313Z,4.70
2023-04-19T16:19:34.167Z,5.03
2023-04-19T16:22:36.927Z,4.38
2023-04-19T16:25:41.380Z,4.97
2023-04-19T16:28:44.061Z,5.32
2023-04-19T16:31:50.499Z,5.28
2023-04-19T16:34:54.939Z,4.63
2023-04-19T16:37:58.018Z,4.65
2023-04-19T16:41:02.202Z,4.55
2023-04-19T16:44:05.696Z,3.67
2023-04-19T16:47:09.941Z,4.68
2023-04-19T16:50:13.177Z,4.60
2023-04-19T16:53:16.024Z,4.35
2023-04-19T16:56:19.434Z,3.97
2023-04-19T16:59:22.249Z,4.35
2023-04-19T17:02:26.554Z,3.05
2023-04-19T17:05:29.552Z,3.72
2023-04-19T17:08:32.228Z,3.50
2023-04-19T17:11:34.938Z,4.63
2023-04-19T17:14:37.715Z,4.53
2023-04-19T17:17:42.769Z,4.97
2023-04-19T17:20:45.696Z,2.53
2023-04-19T17:23:48.391Z,1.77
2023-04-19T17:26:51.174Z,1.27
2023-04-19T17:29:54.308Z,1.00
2023-04-19T17:32:58.596Z,1.00
2023-04-19T17:36:01.346Z,0.90
2023-04-19T17:39:05.549Z,0.85
2023-04-19T17:42:08.393Z,0.93
2023-04-19T17:45:12.029Z,0.90
2023-04-19T17:48:16.167Z,1.23
2023-04-19T17:51:19.006Z,1.10
2023-04-19T17:54:21.679Z,1.00
2023-04-19T17:57:24.627Z,0.70
2023-04-19T18:00:27.421Z,1.00
2023-04-19T18:03:32.528Z,1.30
2023-04-19T18:06:35.480Z,1.35
2023-04-19T18:09:38.154Z,1.20
2023-04-19T18:12:41.059Z,1.30
2023-04-19T18:15:43.883Z,1.00
2023-04-19T18:18:48.073Z,1.10
2023-04-19T18:21:50.897Z,1.00
2023-04-19T18:24:53.786Z,1.38
2023-04-19T18:27:56.708Z,1.20
2023-04-19T18:30:59.417Z,1.40
2023-04-19T18:34:03.786Z,1.10
2023-04-19T18:37:16.174Z,1.27
2023-04-19T18:40:19.365Z,1.30
2023-04-19T18:43:22.205Z,1.10
2023-04-19T18:46:24.940Z,1.73
2023-04-19T18:49:29.036Z,1.20
2023-04-19T18:52:31.752Z,1.27
2023-04-19T18:55:34.655Z,1.50
2023-04-19T18:58:37.324Z,1.30
2023-04-19T19:01:40.167Z,1.40
2023-04-19T19:07:52.993Z,1.40
2023-04-19T19:14:01.768Z,2.20
2023-04-19T19:17:06.044Z,1.67
2023-04-19T19:20:11.315Z,1.80
2023-04-19T19:23:14.591Z,1.30
2023-04-19T19:26:17.446Z,1.60
2023-04-19T19:32:24.945Z,1.10
2023-04-19T19:35:29.142Z,1.23
2023-04-19T19:38:31.772Z,1.30
2023-04-19T19:44:40.697Z,1.67
2023-04-19T19:47:45.762Z,1.30
2023-04-19T19:53:57.221Z,1.03
2023-04-19T19:57:56.581Z,1.90
2023-04-19T20:00:43.809Z,1.70
2023-04-19T20:03:46.364Z,1.50
2023-04-19T20:09:57.328Z,1.27
2023-04-19T20:13:01.430Z,2.00
2023-04-19T20:16:04.392Z,1.20
2023-04-19T20:19:09.831Z,1.43
2023-04-19T20:22:14.324Z,1.40
2023-04-19T20:25:17.518Z,1.50
2023-04-19T20:28:20.240Z,1.30
2023-04-19T20:31:24.009Z,1.40
2023-04-19T20:34:26.939Z,1.67
2023-04-19T20:37:31.015Z,1.33
2023-04-19T20:40:33.778Z,1.50
2023-04-19T20:43:36.477Z,1.53
2023-04-19T20:46:39.122Z,1.50
2023-04-19T20:49:42.071Z,1.30
2023-04-19T20:52:46.393Z,1.67
2023-04-19T20:55:49.225Z,1.10
2023-04-19T20:58:52.089Z,1.30
2023-04-19T21:01:54.828Z,1.00
2023-04-19T21:04:57.558Z,1.43
2023-04-19T21:08:01.778Z,1.40
2023-04-19T21:11:04.677Z,1.60
2023-04-19T21:14:07.412Z,1.70
2023-04-19T21:17:10.450Z,1.23
2023-04-19T21:20:14.601Z,1.50
2023-04-19T21:23:18.861Z,1.67
2023-04-19T21:26:22.191Z,1.57
2023-04-19T21:29:25.091Z,1.60
2023-04-19T21:32:28.703Z,1.80
2023-04-19T21:35:31.416Z,1.70
2023-04-19T21:38:36.192Z,2.03
2023-04-19T21:41:39.030Z,1.87
2023-04-19T21:44:41.885Z,1.63
2023-04-19T21:47:44.583Z,2.03
2023-04-19T21:50:47.261Z,1.53
2023-04-19T21:53:51.385Z,1.57
2023-04-19T21:56:54.085Z,1.60
2023-04-19T21:59:56.767Z,1.60
2023-04-19T22:02:59.567Z,1.63
2023-04-19T22:06:02.765Z,1.63
2023-04-19T22:09:06.901Z,2.20
2023-04-19T22:12:11.831Z,1.47
2023-04-19T22:15:14.975Z,1.60
2023-04-19T22:18:17.660Z,1.70
2023-04-19T22:21:21.032Z,1.50
2023-04-19T22:24:25.176Z,1.60
2023-04-19T22:27:27.818Z,1.73
2023-04-19T22:30:30.963Z,1.97
2023-04-19T22:33:33.746Z,1.77
2023-04-19T22:36:36.561Z,1.93
2023-04-19T22:39:40.728Z,1.90
2023-04-19T22:42:43.589Z,2.17
2023-04-19T22:45:48.015Z,1.83
2023-04-19T22:48:50.983Z,2.00
2023-04-19T22:51:54.426Z,1.93
2023-04-19T22:54:58.577Z,1.60
2023-04-19T22:58:01.293Z,1.80
2023-04-19T23:01:04.277Z,1.97
2023-04-19T23:04:07.156Z,1.73
2023-04-19T23:07:10.003Z,1.67
2023-04-19T23:10:14.841Z,2.37
2023-04-19T23:13:17.791Z,1.93
2023-04-19T23:16:20.812Z,1.60
2023-04-19T23:19:23.623Z,1.93
2023-04-19T23:22:26.492Z,1.80
2023-04-19T23:25:30.600Z,2.07
2023-04-19T23:28:33.434Z,1.63
2023-04-19T23:31:36.306Z,1.77
2023-04-19T23:34:39.100Z,2.07
2023-04-19T23:37:42.033Z,1.93
2023-04-19T23:40:46.497Z,1.80
2023-04-19T23:43:49.380Z,1.90
2023-04-19T23:46:52.137Z,1.83
2023-04-19T23:49:55.157Z,2.20
2023-04-19T23:52:57.929Z,1.90
2023-04-19T23:56:02.004Z,2.10
2023-04-19T23:59:04.893Z,2.23
